Pirovskoe, Russia
Current Conditions -  °F | °C
As of 9:00 PM on Thursday 27 Nov 2014 (Local Time) from UNKL Reporting Station
Snow Showers Snow Showers  
Wind Chill:   Ceiling: 1400
Heat Index: 16°   Visibility: 0.28mi
Dew Point: 12°   Wind: 7mph
Humidity: 86%   Direction: 250°WSW
Pressure: 29.5"   Gusts: NA
Location:  57.63°N, 92.27°E
Report Text: UNKL 271400Z 25003MPS 0450 R29/1000V1300D +SHSN BKN014CB OVC083M09/M11 Q0999 TEMPO 0300 +SHSN RMK QFE724 29////45
Loading
Personal Weather Stations






























Interactive Weather Map New forecast layout! Learn more

10-Day Weather Forecast

Advertisements
Track Severe Weather on mobile